Time;durP1;ratioP1;P1;durP2;ratioP2;P2;SDS_P1;SDS_P2;PMS_P1;PMS_P2;Temp;Humidity;BMP_temperature;BMP_pressure;BME280_temperature;BME280_humidity;BME280_pressure;Samples;Min_cycle;Max_cycle;Signal;HPM_P1;HPM_P2
2021/10/12 00:01:59;;;;;;;21.93;20.50;;;;;;;;;;5093485;28;20671;-87
2021/10/12 00:04:28;;;;;;;22.60;21.20;;;;;;;;;;5093517;28;20925;-87
2021/10/12 00:06:55;;;;;;;23.20;21.58;;;;;;;;;;5093722;28;20434;-87
2021/10/12 00:09:23;;;;;;;23.03;21.73;;;;;;;;;;5093891;28;20202;-87
2021/10/12 00:11:52;;;;;;;23.38;21.77;;;;;;;;;;5094308;28;20425;-87
2021/10/12 00:14:19;;;;;;;23.30;21.83;;;;;;;;;;5097445;28;20263;-87
2021/10/12 00:16:47;;;;;;;23.57;21.97;;;;;;;;;;5097768;27;20457;-87
2021/10/12 00:19:14;;;;;;;21.23;19.77;;;;;;;;;;5096851;28;20449;-87
2021/10/12 00:21:43;;;;;;;23.00;21.63;;;;;;;;;;5096601;28;20437;-87
2021/10/12 00:24:11;;;;;;;23.00;21.60;;;;;;;;;;5096823;28;20201;-88
2021/10/12 00:26:38;;;;;;;23.10;21.40;;;;;;;;;;5096609;28;20462;-87
2021/10/12 00:29:06;;;;;;;24.27;22.70;;;;;;;;;;5096942;28;20876;-88
2021/10/12 00:31:33;;;;;;;21.90;20.50;;;;;;;;;;5096938;28;20422;-86
2021/10/12 00:34:01;;;;;;;22.20;20.70;;;;;;;;;;5096968;28;20477;-87
2021/10/12 00:36:28;;;;;;;23.47;21.63;;;;;;;;;;5097119;28;20418;-87
2021/10/12 00:38:57;;;;;;;24.93;22.90;;;;;;;;;;5097087;28;20444;-87
2021/10/12 00:41:24;;;;;;;22.67;21.27;;;;;;;;;;5096997;28;20434;-87
2021/10/12 00:43:52;;;;;;;23.67;21.90;;;;;;;;;;5096791;28;20914;-86
2021/10/12 00:46:19;;;;;;;24.57;22.60;;;;;;;;;;5096739;28;20441;-88
2021/10/12 00:48:46;;;;;;;22.43;20.93;;;;;;;;;;5096624;28;20823;-87
2021/10/12 00:51:14;;;;;;;22.60;21.00;;;;;;;;;;5097019;28;20440;-87
2021/10/12 00:53:41;;;;;;;23.53;21.47;;;;;;;;;;5096453;28;20798;-87
2021/10/12 00:56:12;;;;;;;22.60;21.00;;;;;;;;;;5096532;28;20985;-88
2021/10/12 00:58:39;;;;;;;24.73;22.73;;;;;;;;;;5096828;28;20440;-87
2021/10/12 01:01:07;;;;;;;23.57;21.37;;;;;;;;;;5096316;28;20479;-87
2021/10/12 01:03:34;;;;;;;23.90;22.20;;;;;;;;;;5096648;28;20444;-87
2021/10/12 01:06:02;;;;;;;23.20;21.40;;;;;;;;;;5096600;28;20439;-86
2021/10/12 01:08:30;;;;;;;22.40;20.90;;;;;;;;;;5096475;28;20449;-86
2021/10/12 01:10:57;;;;;;;24.93;22.57;;;;;;;;;;5096315;28;20475;-86
2021/10/12 01:13:26;;;;;;;23.30;21.57;;;;;;;;;;5096388;28;20418;-87
2021/10/12 01:15:54;;;;;;;22.83;20.93;;;;;;;;;;5096490;28;20414;-87
2021/10/12 01:18:22;;;;;;;23.93;22.20;;;;;;;;;;5096562;28;20445;-87
2021/10/12 01:20:52;;;;;;;24.23;22.27;;;;;;;;;;5096621;28;20445;-87
2021/10/12 01:23:20;;;;;;;23.13;21.40;;;;;;;;;;5095712;28;20439;-87
2021/10/12 01:25:47;;;;;;;23.67;21.87;;;;;;;;;;5096241;28;20440;-86
2021/10/12 01:28:15;;;;;;;22.20;20.70;;;;;;;;;;5096143;28;20801;-87
2021/10/12 01:30:42;;;;;;;23.00;21.50;;;;;;;;;;5096209;28;20444;-86
2021/10/12 01:33:10;;;;;;;22.37;20.80;;;;;;;;;;5096188;28;20437;-87
2021/10/12 01:35:38;;;;;;;23.10;21.50;;;;;;;;;;5094512;28;21270;-86
2021/10/12 01:38:07;;;;;;;23.63;21.83;;;;;;;;;;5095827;28;20439;-87
2021/10/12 01:40:34;;;;;;;23.80;22.17;;;;;;;;;;5095904;28;20437;-87
2021/10/12 01:43:02;;;;;;;23.13;21.30;;;;;;;;;;5095664;28;20425;-88
2021/10/12 01:45:29;;;;;;;23.50;21.90;;;;;;;;;;5095496;28;20444;-87
2021/10/12 01:47:56;;;;;;;23.37;21.77;;;;;;;;;;5096353;28;20472;-87
2021/10/12 01:50:24;;;;;;;24.50;22.70;;;;;;;;;;5095692;28;20435;-87
2021/10/12 01:52:51;;;;;;;22.80;21.30;;;;;;;;;;5095486;28;20464;-87
2021/10/12 01:55:24;;;;;;;23.60;22.00;;;;;;;;;;5096016;28;20553;-87
2021/10/12 01:57:51;;;;;;;22.17;20.63;;;;;;;;;;5095167;28;20454;-87
2021/10/12 02:00:18;;;;;;;23.37;21.57;;;;;;;;;;5095586;28;20447;-87
2021/10/12 02:02:46;;;;;;;22.67;21.20;;;;;;;;;;5095391;28;20431;-87
2021/10/12 02:05:13;;;;;;;22.60;20.90;;;;;;;;;;5095505;28;20444;-87
2021/10/12 02:07:41;;;;;;;22.80;21.00;;;;;;;;;;5094350;28;20418;-87
2021/10/12 02:10:09;;;;;;;22.67;21.07;;;;;;;;;;5095138;28;20471;-86
2021/10/12 02:12:38;;;;;;;22.27;20.58;;;;;;;;;;5094967;28;20447;-87
2021/10/12 02:15:05;;;;;;;21.77;20.47;;;;;;;;;;5094086;28;20225;-87
2021/10/12 02:17:33;;;;;;;22.57;20.70;;;;;;;;;;5095287;28;20464;-87
2021/10/12 02:20:01;;;;;;;22.87;21.27;;;;;;;;;;5095025;28;20811;-87
2021/10/12 02:22:29;;;;;;;21.10;19.90;;;;;;;;;;5093990;28;20509;-87
2021/10/12 02:24:56;;;;;;;20.97;19.77;;;;;;;;;;5094943;28;20422;-87
2021/10/12 02:27:23;;;;;;;21.53;20.03;;;;;;;;;;5094931;28;20419;-87
2021/10/12 02:29:52;;;;;;;21.53;19.63;;;;;;;;;;5095084;28;20921;-87
2021/10/12 02:32:20;;;;;;;20.80;19.47;;;;;;;;;;5094769;28;20452;-87
2021/10/12 02:34:47;;;;;;;21.57;20.07;;;;;;;;;;5094203;28;20575;-87
2021/10/12 02:37:15;;;;;;;21.20;19.70;;;;;;;;;;5094513;28;20437;-87
2021/10/12 02:39:42;;;;;;;21.93;20.33;;;;;;;;;;5094716;28;20410;-87
2021/10/12 02:42:10;;;;;;;21.00;19.60;;;;;;;;;;5094880;28;20440;-87
2021/10/12 02:44:37;;;;;;;21.73;20.33;;;;;;;;;;5095216;28;20444;-88
2021/10/12 02:47:06;;;;;;;21.50;20.20;;;;;;;;;;5094582;28;20950;-87
2021/10/12 02:49:34;;;;;;;20.83;19.50;;;;;;;;;;5094157;28;20849;-87
2021/10/12 02:52:01;;;;;;;22.93;20.87;;;;;;;;;;5094325;28;20547;-87
2021/10/12 02:54:28;;;;;;;22.10;20.53;;;;;;;;;;5093810;28;20477;-87
2021/10/12 02:56:56;;;;;;;21.47;19.93;;;;;;;;;;5092128;28;20450;-87
2021/10/12 02:59:23;;;;;;;21.90;20.20;;;;;;;;;;5094330;28;20419;-87
2021/10/12 03:01:51;;;;;;;22.33;20.42;;;;;;;;;;5093397;28;20511;-87
2021/10/12 03:04:20;;;;;;;21.20;19.70;;;;;;;;;;5094259;28;20240;-87
2021/10/12 03:06:48;;;;;;;21.65;19.77;;;;;;;;;;5094943;28;21028;-87
2021/10/12 03:09:15;;;;;;;22.03;20.30;;;;;;;;;;5094333;28;20197;-87
2021/10/12 03:11:43;;;;;;;21.42;20.02;;;;;;;;;;5094233;28;20409;-86
2021/10/12 03:14:10;;;;;;;20.00;18.53;;;;;;;;;;5094082;28;20186;-87
2021/10/12 03:16:38;;;;;;;20.33;18.80;;;;;;;;;;5094491;28;20427;-87
2021/10/12 03:19:05;;;;;;;20.60;18.90;;;;;;;;;;5094383;28;20450;-87
2021/10/12 03:21:36;;;;;;;20.27;19.00;;;;;;;;;;5093102;28;20822;-87
2021/10/12 03:24:03;;;;;;;20.50;19.03;;;;;;;;;;5094189;28;20443;-87
2021/10/12 03:26:33;;;;;;;20.60;19.30;;;;;;;;;;5093738;28;20478;-87
2021/10/12 03:29:01;;;;;;;21.20;19.57;;;;;;;;;;5094352;28;20442;-87
2021/10/12 03:31:28;;;;;;;21.10;19.70;;;;;;;;;;5094173;28;20445;-86
2021/10/12 03:33:55;;;;;;;22.03;20.47;;;;;;;;;;5094259;28;20419;-87
2021/10/12 03:36:23;;;;;;;22.63;21.20;;;;;;;;;;5094107;28;20446;-87
2021/10/12 03:38:52;;;;;;;23.42;21.60;;;;;;;;;;5094153;28;20880;-87
2021/10/12 03:41:19;;;;;;;22.23;20.60;;;;;;;;;;5094181;28;20205;-87
2021/10/12 03:43:47;;;;;;;22.47;20.73;;;;;;;;;;5094060;28;20411;-87
2021/10/12 03:46:14;;;;;;;23.60;21.80;;;;;;;;;;5094081;28;20440;-87
2021/10/12 03:48:41;;;;;;;23.37;21.37;;;;;;;;;;5097883;28;20968;-87
2021/10/12 03:51:09;;;;;;;21.70;20.00;;;;;;;;;;5096823;28;20439;-86
2021/10/12 03:53:36;;;;;;;22.67;20.83;;;;;;;;;;5097806;28;20441;-87
2021/10/12 03:56:05;;;;;;;22.80;21.10;;;;;;;;;;5097307;28;20477;-87
2021/10/12 03:58:33;;;;;;;22.67;21.20;;;;;;;;;;5097710;28;20418;-87
2021/10/12 04:01:00;;;;;;;22.40;20.80;;;;;;;;;;5097915;28;20419;-86
2021/10/12 04:03:28;;;;;;;22.97;21.27;;;;;;;;;;5096299;28;20455;-87
2021/10/12 04:05:56;;;;;;;23.27;21.57;;;;;;;;;;5097556;28;20480;-87
2021/10/12 04:08:23;;;;;;;21.77;20.40;;;;;;;;;;5097737;28;20869;-86
2021/10/12 04:10:50;;;;;;;24.13;22.20;;;;;;;;;;5097356;28;20443;-87
2021/10/12 04:13:19;;;;;;;22.17;20.67;;;;;;;;;;5097834;28;20428;-87
2021/10/12 04:15:47;;;;;;;24.87;22.73;;;;;;;;;;5097485;28;20458;-87
2021/10/12 04:18:14;;;;;;;23.80;21.70;;;;;;;;;;5097532;28;20475;-87
2021/10/12 04:20:41;;;;;;;23.87;21.83;;;;;;;;;;5097181;28;20444;-86
2021/10/12 04:23:10;;;;;;;24.10;22.40;;;;;;;;;;5097271;28;20868;-87
2021/10/12 04:25:39;;;;;;;23.67;21.97;;;;;;;;;;5096054;28;20710;-89
2021/10/12 04:28:11;;;;;;;24.63;23.03;;;;;;;;;;5097169;28;20455;-87
2021/10/12 04:30:40;;;;;;;23.87;22.17;;;;;;;;;;5097156;28;20444;-87
2021/10/12 04:33:07;;;;;;;24.80;22.48;;;;;;;;;;5097328;27;20442;-88
2021/10/12 04:35:35;;;;;;;25.73;23.80;;;;;;;;;;5097090;28;20221;-87
2021/10/12 04:38:02;;;;;;;25.97;23.60;;;;;;;;;;5096708;28;20426;-87
2021/10/12 04:40:30;;;;;;;24.97;23.17;;;;;;;;;;5096993;28;20459;-86
2021/10/12 04:42:58;;;;;;;22.97;21.23;;;;;;;;;;5096909;28;20444;-87
2021/10/12 04:45:25;;;;;;;26.30;24.10;;;;;;;;;;5097005;28;20444;-87
2021/10/12 04:47:54;;;;;;;22.57;20.67;;;;;;;;;;5096774;28;20910;-87
2021/10/12 04:50:22;;;;;;;23.33;21.57;;;;;;;;;;5096999;28;20422;-86
2021/10/12 04:52:49;;;;;;;22.27;20.40;;;;;;;;;;5096676;28;20427;-86
2021/10/12 04:55:17;;;;;;;23.03;21.00;;;;;;;;;;5096735;28;20453;-86
2021/10/12 04:57:44;;;;;;;23.67;21.80;;;;;;;;;;5096163;28;20491;-86
2021/10/12 05:00:12;;;;;;;23.77;21.60;;;;;;;;;;5095938;28;20418;-86
2021/10/12 05:02:39;;;;;;;24.47;21.93;;;;;;;;;;5096465;28;20436;-86
2021/10/12 05:05:09;;;;;;;23.17;21.40;;;;;;;;;;5096487;28;20407;-86
2021/10/12 05:07:38;;;;;;;25.80;23.83;;;;;;;;;;5095655;28;20440;-86
2021/10/12 05:10:06;;;;;;;25.40;23.50;;;;;;;;;;5096237;28;20424;-87
2021/10/12 05:12:34;;;;;;;24.17;22.13;;;;;;;;;;5096409;28;20857;-86
2021/10/12 05:15:01;;;;;;;22.80;21.13;;;;;;;;;;5096317;28;20457;-86
2021/10/12 05:17:34;;;;;;;23.57;21.77;;;;;;;;;;5096454;28;20456;-87
2021/10/12 05:20:01;;;;;;;25.53;23.63;;;;;;;;;;5095743;28;20843;-87
2021/10/12 05:22:31;;;;;;;23.97;22.27;;;;;;;;;;5095687;28;20751;-86
2021/10/12 05:24:58;;;;;;;24.03;22.33;;;;;;;;;;5095504;28;20554;-87
2021/10/12 05:27:26;;;;;;;23.83;22.03;;;;;;;;;;5095450;28;20440;-86
2021/10/12 05:29:54;;;;;;;25.17;23.17;;;;;;;;;;5096014;28;20432;-86
2021/10/12 05:32:21;;;;;;;25.77;23.20;;;;;;;;;;5095946;28;20763;-85
2021/10/12 05:34:48;;;;;;;25.23;23.27;;;;;;;;;;5095871;28;20463;-86
2021/10/12 05:37:16;;;;;;;25.87;23.47;;;;;;;;;;5096073;28;20415;-87
2021/10/12 05:39:45;;;;;;;25.87;23.90;;;;;;;;;;5096099;28;20436;-86
2021/10/12 05:42:12;;;;;;;23.27;21.70;;;;;;;;;;5095960;28;20414;-87
2021/10/12 05:44:40;;;;;;;25.60;23.53;;;;;;;;;;5094543;28;20426;-86
2021/10/12 05:47:07;;;;;;;24.93;23.07;;;;;;;;;;5095745;28;20430;-87
2021/10/12 05:49:36;;;;;;;25.73;23.83;;;;;;;;;;5095481;28;20456;-87
2021/10/12 05:52:04;;;;;;;24.50;22.77;;;;;;;;;;5095763;28;20463;-86
2021/10/12 05:54:34;;;;;;;26.80;24.53;;;;;;;;;;5095673;28;20407;-87
2021/10/12 05:57:05;;;;;;;25.77;23.67;;;;;;;;;;5095045;28;20561;-87
2021/10/12 05:59:33;;;;;;;24.87;23.07;;;;;;;;;;5095588;28;20869;-87
2021/10/12 06:02:00;;;;;;;27.30;24.80;;;;;;;;;;5095066;28;20412;-86
2021/10/12 06:04:28;;;;;;;24.20;22.40;;;;;;;;;;5095533;28;20444;-87
2021/10/12 06:07:01;;;;;;;24.50;22.33;;;;;;;;;;5095469;28;20767;-86
2021/10/12 06:09:28;;;;;;;24.50;22.40;;;;;;;;;;5094220;28;20433;-87
2021/10/12 06:11:56;;;;;;;24.23;22.38;;;;;;;;;;5094243;28;20436;-86
2021/10/12 06:14:25;;;;;;;24.83;23.20;;;;;;;;;;5095081;28;20185;-87
2021/10/12 06:16:52;;;;;;;24.43;22.53;;;;;;;;;;5093844;28;21016;-87
2021/10/12 06:19:19;;;;;;;25.60;23.57;;;;;;;;;;5095259;28;20791;-86
2021/10/12 06:21:47;;;;;;;23.37;21.90;;;;;;;;;;5094967;28;20444;-87
2021/10/12 06:24:14;;;;;;;24.80;23.00;;;;;;;;;;5095054;28;20443;-87
2021/10/12 06:26:42;;;;;;;25.50;23.23;;;;;;;;;;5094683;28;20395;-87
2021/10/12 06:29:09;;;;;;;26.20;23.47;;;;;;;;;;5094777;28;20448;-86
2021/10/12 06:31:38;;;;;;;25.70;23.50;;;;;;;;;;5094897;28;20451;-87
2021/10/12 06:34:06;;;;;;;26.03;23.80;;;;;;;;;;5094947;28;20764;-86
2021/10/12 06:36:33;;;;;;;27.20;24.90;;;;;;;;;;5094486;28;20462;-87
2021/10/12 06:39:01;;;;;;;25.70;23.80;;;;;;;;;;5094587;28;20420;-87
2021/10/12 06:41:28;;;;;;;26.30;24.07;;;;;;;;;;5094895;28;20447;-87
2021/10/12 06:43:56;;;;;;;27.60;25.00;;;;;;;;;;5093613;28;20460;-86
2021/10/12 06:46:23;;;;;;;26.07;23.57;;;;;;;;;;5094751;28;20444;-86
2021/10/12 06:48:52;;;;;;;28.13;25.83;;;;;;;;;;5094344;28;20414;-86
2021/10/12 06:51:20;;;;;;;28.00;25.53;;;;;;;;;;5094832;28;20436;-86
2021/10/12 06:53:48;;;;;;;25.77;23.30;;;;;;;;;;5094559;28;20441;-86
2021/10/12 06:56:16;;;;;;;27.57;25.43;;;;;;;;;;5093924;28;20481;-86
2021/10/12 06:58:44;;;;;;;27.53;25.23;;;;;;;;;;5094169;28;20523;-86
2021/10/12 07:01:11;;;;;;;28.10;25.67;;;;;;;;;;5094557;28;20490;-85
2021/10/12 07:03:39;;;;;;;32.70;29.20;;;;;;;;;;5094349;28;20415;-85
2021/10/12 07:06:08;;;;;;;28.80;26.00;;;;;;;;;;5094662;28;20435;-86
2021/10/12 07:08:35;;;;;;;31.60;28.73;;;;;;;;;;5093807;28;20436;-85
2021/10/12 07:11:02;;;;;;;33.40;29.83;;;;;;;;;;5093861;28;20458;-85
2021/10/12 07:13:30;;;;;;;34.90;31.37;;;;;;;;;;5093995;28;20763;-84
2021/10/12 07:15:57;;;;;;;32.67;29.93;;;;;;;;;;5093559;28;20450;-83
2021/10/12 07:18:25;;;;;;;34.43;30.00;;;;;;;;;;5093453;28;20497;-84
2021/10/12 07:20:52;;;;;;;34.73;31.07;;;;;;;;;;5093971;28;20441;-85
2021/10/12 07:23:21;;;;;;;34.93;31.43;;;;;;;;;;5093635;28;20443;-86
2021/10/12 07:25:49;;;;;;;34.83;31.93;;;;;;;;;;5093838;28;20467;-83
2021/10/12 07:28:16;;;;;;;36.23;32.70;;;;;;;;;;5093503;28;20436;-84
2021/10/12 07:30:44;;;;;;;33.67;30.87;;;;;;;;;;5093435;28;20471;-84
2021/10/12 07:33:11;;;;;;;34.63;31.90;;;;;;;;;;5093514;28;20440;-85
2021/10/12 07:35:43;;;;;;;36.13;32.93;;;;;;;;;;5093884;28;20846;-85
2021/10/12 07:38:11;;;;;;;38.77;35.27;;;;;;;;;;5093845;28;20452;-84
2021/10/12 07:40:41;;;;;;;34.80;32.10;;;;;;;;;;5093179;28;20517;-84
2021/10/12 07:43:09;;;;;;;37.70;34.80;;;;;;;;;;5093211;28;20457;-84
2021/10/12 07:45:36;;;;;;;34.67;32.17;;;;;;;;;;5093114;28;20928;-85
2021/10/12 07:48:04;;;;;;;36.17;33.27;;;;;;;;;;5093906;28;20473;-85
2021/10/12 07:50:31;;;;;;;35.67;32.53;;;;;;;;;;5093542;28;20439;-85
2021/10/12 07:52:59;;;;;;;38.43;35.10;;;;;;;;;;5093002;28;20410;-84
2021/10/12 07:55:35;;;;;;;38.73;35.17;;;;;;;;;;5092905;28;20414;-84
2021/10/12 07:58:04;;;;;;;37.17;34.40;;;;;;;;;;5092436;28;21038;-84
2021/10/12 08:00:32;;;;;;;51.40;39.03;;;;;;;;;;5092744;28;20418;-86
2021/10/12 08:02:59;;;;;;;43.50;39.33;;;;;;;;;;5092617;28;20753;-86
2021/10/12 08:05:27;;;;;;;55.40;49.77;;;;;;;;;;5092879;28;21102;-85
2021/10/12 08:07:55;;;;;;;52.23;47.80;;;;;;;;;;5093178;28;20416;-85
2021/10/12 08:10:22;;;;;;;52.07;47.40;;;;;;;;;;5092911;28;20418;-84
2021/10/12 08:12:53;;;;;;;52.57;48.27;;;;;;;;;;5092719;28;20461;-83
2021/10/12 08:15:22;;;;;;;54.50;49.77;;;;;;;;;;5092981;28;20484;-84
2021/10/12 08:17:49;;;;;;;52.70;48.10;;;;;;;;;;5092708;28;20815;-84
2021/10/12 08:20:17;;;;;;;52.00;47.57;;;;;;;;;;5093481;28;20411;-85
2021/10/12 08:22:44;;;;;;;50.43;46.40;;;;;;;;;;5093525;28;20441;-85
2021/10/12 08:25:12;;;;;;;51.90;47.70;;;;;;;;;;5093029;28;21159;-83
2021/10/12 08:27:40;;;;;;;52.03;47.50;;;;;;;;;;5092862;28;20787;-83
2021/10/12 08:30:09;;;;;;;53.40;48.80;;;;;;;;;;5092749;28;20987;-83
2021/10/12 08:32:38;;;;;;;55.20;49.90;;;;;;;;;;5092930;28;20772;-84
2021/10/12 08:35:07;;;;;;;54.30;48.90;;;;;;;;;;5095409;28;20436;-83
2021/10/12 08:37:35;;;;;;;52.37;47.87;;;;;;;;;;5096302;28;20508;-83
2021/10/12 08:40:04;;;;;;;53.20;48.30;;;;;;;;;;5096215;28;20431;-83
2021/10/12 08:42:32;;;;;;;51.43;47.50;;;;;;;;;;5096395;28;20477;-83
2021/10/12 08:45:00;;;;;;;49.93;46.03;;;;;;;;;;5096510;28;20447;-83
2021/10/12 08:47:28;;;;;;;53.67;49.97;;;;;;;;;;5095927;28;20447;-83
2021/10/12 08:49:57;;;;;;;51.53;48.37;;;;;;;;;;5096324;28;20430;-83
2021/10/12 08:52:24;;;;;;;48.83;45.63;;;;;;;;;;5096304;28;20422;-83
2021/10/12 08:54:52;;;;;;;49.50;46.00;;;;;;;;;;5096127;28;20478;-83
2021/10/12 08:57:28;;;;;;;50.97;47.57;;;;;;;;;;5095580;28;20975;-83
2021/10/12 08:59:56;;;;;;;49.90;46.60;;;;;;;;;;5096074;28;20869;-83
2021/10/12 09:02:25;;;;;;;47.27;44.30;;;;;;;;;;5095760;28;20434;-83
2021/10/12 09:04:53;;;;;;;47.20;44.17;;;;;;;;;;5095884;28;20533;-84
2021/10/12 09:07:23;;;;;;;46.33;43.43;;;;;;;;;;5095719;28;20444;-83
2021/10/12 09:09:50;;;;;;;47.60;44.40;;;;;;;;;;5094362;28;20419;-83
2021/10/12 09:12:18;;;;;;;51.10;48.03;;;;;;;;;;5095750;28;20411;-83
2021/10/12 09:14:52;;;;;;;51.10;47.83;;;;;;;;;;5095746;28;20423;-83
2021/10/12 09:17:29;;;;;;;49.77;46.57;;;;;;;;;;5095239;28;20448;-83
2021/10/12 09:19:56;;;;;;;47.97;44.87;;;;;;;;;;5095376;28;20433;-83
2021/10/12 09:22:25;;;;;;;48.53;45.50;;;;;;;;;;5095452;28;20429;-83
2021/10/12 09:24:52;;;;;;;48.10;45.20;;;;;;;;;;5095323;28;20411;-83
2021/10/12 09:27:24;;;;;;;53.57;49.20;;;;;;;;;;5095599;28;20452;-83
2021/10/12 09:29:52;;;;;;;47.17;44.37;;;;;;;;;;5095486;28;20523;-83
2021/10/12 09:32:22;;;;;;;43.10;40.70;;;;;;;;;;5095304;28;20406;-83
2021/10/12 09:35:02;;;;;;;45.70;42.40;;;;;;;;;;5095000;28;20425;-83
2021/10/12 09:37:31;;;;;;;42.77;39.97;;;;;;;;;;5095079;28;20458;-83
2021/10/12 09:39:58;;;;;;;45.00;42.10;;;;;;;;;;5094976;28;21215;-84
2021/10/12 09:42:25;;;;;;;44.20;41.40;;;;;;;;;;5095126;28;20814;-83
2021/10/12 09:44:53;;;;;;;43.10;40.13;;;;;;;;;;5094799;28;20429;-83
2021/10/12 09:47:22;;;;;;;45.73;42.40;;;;;;;;;;5094797;28;20428;-84
2021/10/12 09:49:50;;;;;;;42.97;40.33;;;;;;;;;;5095019;28;20415;-84
2021/10/12 09:52:18;;;;;;;39.83;37.47;;;;;;;;;;5094860;28;20419;-83
2021/10/12 09:54:58;;;;;;;38.43;36.13;;;;;;;;;;5094415;28;20415;-83
2021/10/12 09:57:30;;;;;;;40.57;38.20;;;;;;;;;;5094164;28;20939;-83
2021/10/12 09:59:59;;;;;;;37.57;35.47;;;;;;;;;;5094782;28;20440;-82
2021/10/12 10:02:27;;;;;;;35.57;33.67;;;;;;;;;;5094603;27;20443;-83
2021/10/12 10:04:56;;;;;;;36.53;34.73;;;;;;;;;;5094657;28;20417;-83
2021/10/12 10:07:26;;;;;;;35.60;33.77;;;;;;;;;;5093687;28;20433;-84
2021/10/12 10:09:56;;;;;;;33.80;31.87;;;;;;;;;;5094415;28;20419;-83
2021/10/12 10:12:24;;;;;;;36.30;34.50;;;;;;;;;;5094176;28;20911;-83
2021/10/12 10:14:51;;;;;;;35.17;33.27;;;;;;;;;;5094155;28;20451;-83
2021/10/12 10:17:19;;;;;;;36.27;34.27;;;;;;;;;;5094041;28;20466;-83
2021/10/12 10:19:47;;;;;;;36.90;34.80;;;;;;;;;;5093956;28;20450;-84
2021/10/12 10:22:29;;;;;;;36.40;34.40;;;;;;;;;;5094352;28;20766;-84
2021/10/12 10:24:59;;;;;;;37.00;35.00;;;;;;;;;;5093891;28;20485;-84
2021/10/12 10:27:31;;;;;;;36.30;34.30;;;;;;;;;;5093841;28;20926;-84
2021/10/12 10:30:13;;;;;;;33.03;31.33;;;;;;;;;;5094320;28;20491;-84
2021/10/12 10:32:47;;;;;;;34.83;33.07;;;;;;;;;;5093779;28;20958;-84
2021/10/12 10:35:15;;;;;;;33.43;31.67;;;;;;;;;;5093905;28;20773;-83
2021/10/12 10:37:43;;;;;;;33.73;31.90;;;;;;;;;;5093887;28;21053;-84
2021/10/12 10:40:34;;;;;;;33.93;32.30;;;;;;;;;;5093977;28;20403;-84
2021/10/12 10:43:02;;;;;;;27.77;26.57;;;;;;;;;;5094257;28;20417;-84
2021/10/12 10:45:43;;;;;;;24.70;23.60;;;;;;;;;;5094107;28;20418;-83
2021/10/12 10:48:11;;;;;;;21.80;20.80;;;;;;;;;;5094107;28;20807;-84
2021/10/12 10:50:39;;;;;;;21.77;20.67;;;;;;;;;;5094220;28;20411;-84
2021/10/12 10:53:08;;;;;;;21.60;20.50;;;;;;;;;;5093890;28;20400;-84
2021/10/12 10:55:38;;;;;;;21.57;20.53;;;;;;;;;;5094230;28;20408;-84
2021/10/12 10:58:06;;;;;;;19.60;18.40;;;;;;;;;;5092940;28;20471;-85
2021/10/12 11:00:41;;;;;;;20.33;19.33;;;;;;;;;;5093854;28;20441;-84
2021/10/12 11:03:08;;;;;;;19.20;18.20;;;;;;;;;;5094068;28;20735;-84
2021/10/12 11:05:37;;;;;;;19.30;18.40;;;;;;;;;;5093904;28;20464;-85
2021/10/12 11:08:11;;;;;;;19.63;18.57;;;;;;;;;;5093995;28;20930;-84
2021/10/12 11:10:40;;;;;;;18.87;17.87;;;;;;;;;;5093698;28;20787;-84
2021/10/12 11:13:08;;;;;;;20.40;19.10;;;;;;;;;;5093867;28;20519;-83
2021/10/12 11:15:47;;;;;;;19.40;18.13;;;;;;;;;;5093612;28;20441;-85
2021/10/12 11:18:14;;;;;;;19.13;18.13;;;;;;;;;;5093539;28;21039;-84
2021/10/12 11:20:43;;;;;;;19.07;17.77;;;;;;;;;;5093742;28;20445;-85
2021/10/12 11:23:11;;;;;;;20.60;19.00;;;;;;;;;;5093447;28;20427;-85
2021/10/12 11:25:38;;;;;;;19.80;18.50;;;;;;;;;;5093846;28;20444;-84
2021/10/12 11:28:11;;;;;;;19.93;18.57;;;;;;;;;;5093425;28;20472;-84
2021/10/12 11:30:40;;;;;;;18.60;17.70;;;;;;;;;;5093437;28;20419;-84
2021/10/12 11:33:07;;;;;;;18.70;17.63;;;;;;;;;;5093775;28;20451;-85
2021/10/12 11:35:36;;;;;;;19.73;18.70;;;;;;;;;;5093416;28;20945;-84
2021/10/12 11:38:04;;;;;;;20.60;19.10;;;;;;;;;;5093855;28;20503;-84
2021/10/12 11:40:31;;;;;;;19.33;18.30;;;;;;;;;;5093629;28;20445;-84
2021/10/12 11:43:00;;;;;;;18.70;17.80;;;;;;;;;;5092289;28;20470;-84
2021/10/12 11:45:29;;;;;;;18.97;17.77;;;;;;;;;;5093113;28;20448;-84
2021/10/12 11:47:57;;;;;;;19.90;18.70;;;;;;;;;;5093600;28;20415;-85
2021/10/12 11:50:25;;;;;;;20.03;18.60;;;;;;;;;;5093601;28;20427;-84
2021/10/12 11:52:53;;;;;;;20.77;19.10;;;;;;;;;;5093457;28;20440;-84
2021/10/12 11:55:26;;;;;;;19.20;17.67;;;;;;;;;;5093539;28;20523;-85
2021/10/12 11:57:53;;;;;;;19.97;18.47;;;;;;;;;;5092944;28;20510;-84
2021/10/12 12:00:36;;;;;;;20.47;18.63;;;;;;;;;;5093269;28;20920;-85
2021/10/12 12:03:16;;;;;;;19.50;18.40;;;;;;;;;;5093350;28;20440;-85
2021/10/12 12:05:50;;;;;;;20.30;19.10;;;;;;;;;;5093204;28;20413;-84
2021/10/12 12:08:17;;;;;;;19.57;18.37;;;;;;;;;;5094556;28;20924;-85
2021/10/12 12:10:45;;;;;;;20.13;18.90;;;;;;;;;;5097474;28;20448;-84
2021/10/12 12:13:12;;;;;;;19.83;18.53;;;;;;;;;;5097133;28;20408;-83
2021/10/12 12:15:40;;;;;;;19.87;18.70;;;;;;;;;;5097175;28;20404;-85
2021/10/12 12:18:16;;;;;;;20.03;18.70;;;;;;;;;;5096745;28;20478;-85
2021/10/12 12:20:58;;;;;;;22.43;19.87;;;;;;;;;;5096671;28;20414;-84
2021/10/12 12:23:35;;;;;;;19.87;18.67;;;;;;;;;;5094805;28;20820;-85
2021/10/12 12:26:04;;;;;;;19.60;18.50;;;;;;;;;;5096683;28;20434;-84
2021/10/12 12:28:31;;;;;;;19.87;18.60;;;;;;;;;;5097042;28;20509;-84
2021/10/12 12:30:59;;;;;;;20.43;18.90;;;;;;;;;;5096487;28;20437;-85
2021/10/12 12:33:27;;;;;;;20.17;18.63;;;;;;;;;;5096912;28;20435;-85
2021/10/12 12:35:55;;;;;;;20.60;18.97;;;;;;;;;;5096847;28;20433;-85
2021/10/12 12:38:26;;;;;;;19.43;18.23;;;;;;;;;;5096507;28;20520;-84
2021/10/12 12:40:54;;;;;;;20.07;18.67;;;;;;;;;;5096570;28;20437;-85
2021/10/12 12:43:23;;;;;;;21.67;20.10;;;;;;;;;;5096643;28;20468;-85
2021/10/12 12:46:08;;;;;;;20.10;19.00;;;;;;;;;;5096573;28;20432;-84
2021/10/12 12:48:37;;;;;;;21.30;19.90;;;;;;;;;;5096675;28;20429;-85
2021/10/12 12:51:06;;;;;;;20.60;19.10;;;;;;;;;;5096328;28;20507;-85
2021/10/12 12:53:41;;;;;;;19.87;18.77;;;;;;;;;;5096017;28;20437;-85
2021/10/12 12:56:09;;;;;;;380.15;158.75;;;;;;;;;;5095610;28;20479;-85
2021/10/12 12:58:38;;;;;;;20.10;18.80;;;;;;;;;;5096043;28;20215;-85
2021/10/12 13:01:06;;;;;;;20.97;19.60;;;;;;;;;;5096259;28;20436;-85
2021/10/12 13:03:33;;;;;;;20.20;18.93;;;;;;;;;;5095859;28;20437;-85
2021/10/12 13:06:03;;;;;;;19.83;18.43;;;;;;;;;;5096478;28;20412;-84
2021/10/12 13:08:30;;;;;;;19.93;18.40;;;;;;;;;;5095989;28;20420;-85
2021/10/12 13:10:58;;;;;;;20.20;19.00;;;;;;;;;;5094832;28;20932;-85
2021/10/12 13:13:26;;;;;;;19.90;18.53;;;;;;;;;;5095827;28;20411;-85
2021/10/12 13:15:53;;;;;;;19.20;18.10;;;;;;;;;;5095937;28;20412;-85
2021/10/12 13:18:21;;;;;;;20.70;19.30;;;;;;;;;;5096156;28;20496;-84
2021/10/12 13:20:49;;;;;;;20.37;19.17;;;;;;;;;;5095398;28;20445;-85
2021/10/12 13:23:18;;;;;;;20.23;18.97;;;;;;;;;;5095813;28;20437;-86
2021/10/12 13:25:46;;;;;;;20.53;19.40;;;;;;;;;;5096202;28;20441;-85
2021/10/12 13:28:13;;;;;;;20.20;18.90;;;;;;;;;;5095650;28;20786;-84
2021/10/12 13:30:41;;;;;;;20.23;18.97;;;;;;;;;;5094623;28;20423;-85
2021/10/12 13:33:10;;;;;;;20.80;19.30;;;;;;;;;;5095953;28;20415;-86
2021/10/12 13:35:37;;;;;;;19.23;18.13;;;;;;;;;;5095910;28;20440;-85
2021/10/12 13:38:05;;;;;;;19.83;18.63;;;;;;;;;;5095881;28;20455;-85
2021/10/12 13:40:33;;;;;;;18.87;17.70;;;;;;;;;;5095579;28;21298;-85
2021/10/12 13:43:01;;;;;;;18.70;17.60;;;;;;;;;;5095654;28;20440;-85
2021/10/12 13:45:28;;;;;;;18.80;17.80;;;;;;;;;;5095354;28;20411;-85
2021/10/12 13:47:56;;;;;;;19.23;18.23;;;;;;;;;;5095512;28;20838;-85
2021/10/12 13:50:24;;;;;;;18.90;18.00;;;;;;;;;;5095487;28;20895;-85
2021/10/12 13:52:51;;;;;;;19.47;18.33;;;;;;;;;;5095482;28;20433;-84
2021/10/12 13:55:19;;;;;;;18.80;17.73;;;;;;;;;;5095478;28;20431;-85
2021/10/12 13:57:48;;;;;;;19.67;18.03;;;;;;;;;;5094785;28;20484;-85
2021/10/12 14:00:19;;;;;;;19.10;18.10;;;;;;;;;;5095542;28;20437;-85
2021/10/12 14:02:47;;;;;;;18.13;17.13;;;;;;;;;;5095248;28;20415;-84
2021/10/12 14:05:14;;;;;;;18.53;17.40;;;;;;;;;;5094950;28;20445;-85
2021/10/12 14:07:42;;;;;;;19.20;17.97;;;;;;;;;;5095185;28;20435;-85
2021/10/12 14:10:09;;;;;;;20.03;18.60;;;;;;;;;;5095015;28;20780;-85
2021/10/12 14:12:39;;;;;;;19.60;18.40;;;;;;;;;;5094715;28;20435;-85
2021/10/12 14:15:09;;;;;;;20.10;19.00;;;;;;;;;;5095092;28;20463;-85
2021/10/12 14:17:36;;;;;;;20.60;19.40;;;;;;;;;;5094761;28;20438;-85
2021/10/12 14:20:04;;;;;;;21.43;20.00;;;;;;;;;;5094963;28;20429;-84
2021/10/12 14:22:31;;;;;;;20.93;19.50;;;;;;;;;;5094635;28;20426;-85
2021/10/12 14:24:59;;;;;;;20.60;19.23;;;;;;;;;;5094602;28;20439;-85